createdAt,value
2022-12-31T00:01:16.471Z,96.40
2022-12-31T00:03:44.686Z,96.10
2022-12-31T00:06:30.161Z,95.90
2022-12-31T00:08:59.880Z,96.10
2022-12-31T00:11:28.679Z,96.10
2022-12-31T00:13:56.519Z,96.00
2022-12-31T00:16:32.697Z,95.90
2022-12-31T00:19:01.003Z,96.20
2022-12-31T00:21:30.632Z,96.30
2022-12-31T00:23:58.562Z,96.00
2022-12-31T00:26:28.975Z,96.00
2022-12-31T00:28:58.098Z,96.20
2022-12-31T00:31:37.277Z,96.20
2022-12-31T00:34:06.820Z,96.50
2022-12-31T00:36:37.132Z,96.60
2022-12-31T00:39:06.975Z,96.30
2022-12-31T00:41:34.756Z,95.90
2022-12-31T00:44:02.383Z,96.60
2022-12-31T00:46:30.086Z,96.30
2022-12-31T00:48:57.601Z,96.40
2022-12-31T00:51:27.560Z,96.30
2022-12-31T00:53:56.703Z,96.40
2022-12-31T00:56:27.534Z,96.30
2022-12-31T00:58:55.088Z,96.30
2022-12-31T01:01:29.083Z,96.30
2022-12-31T01:04:01.031Z,96.40
2022-12-31T01:06:28.762Z,96.40
2022-12-31T01:08:56.567Z,96.50
2022-12-31T01:11:29.371Z,96.60
2022-12-31T01:14:16.389Z,96.40
2022-12-31T01:16:46.540Z,96.40
2022-12-31T01:19:23.697Z,96.40
2022-12-31T01:21:51.895Z,96.70
2022-12-31T01:24:19.903Z,96.80
2022-12-31T01:26:47.894Z,96.20
2022-12-31T01:29:17.017Z,96.40
2022-12-31T01:31:44.480Z,96.30
2022-12-31T01:34:12.126Z,96.30
2022-12-31T01:36:39.720Z,96.50
2022-12-31T01:39:08.873Z,96.60
2022-12-31T01:41:42.752Z,96.30
2022-12-31T01:44:13.024Z,96.20
2022-12-31T01:46:57.301Z,96.60
2022-12-31T01:49:47.613Z,96.70
2022-12-31T01:52:24.325Z,96.80
2022-12-31T01:54:56.930Z,96.60
2022-12-31T01:57:25.993Z,96.50
2022-12-31T01:59:54.736Z,96.40
2022-12-31T02:02:22.951Z,96.50
2022-12-31T02:04:53.269Z,96.30
2022-12-31T02:07:21.353Z,96.60
2022-12-31T02:09:48.895Z,96.20
2022-12-31T02:12:16.427Z,96.40
2022-12-31T02:14:50.752Z,96.40
2022-12-31T02:17:48.325Z,96.60
2022-12-31T02:20:39.045Z,96.40
2022-12-31T02:23:31.091Z,96.10
2022-12-31T02:26:21.131Z,96.50
2022-12-31T02:28:54.445Z,96.40
2022-12-31T02:31:35.795Z,96.30
2022-12-31T02:34:12.537Z,96.40
2022-12-31T02:36:43.368Z,96.40
2022-12-31T02:39:12.499Z,96.50
2022-12-31T02:41:51.895Z,96.70
2022-12-31T02:44:26.996Z,96.20
2022-12-31T02:47:13.560Z,96.40
2022-12-31T02:50:18.309Z,96.40
2022-12-31T02:53:19.200Z,96.60
2022-12-31T02:56:09.367Z,96.50
2022-12-31T02:59:08.109Z,96.20
2022-12-31T03:01:59.769Z,96.70
2022-12-31T03:04:32.239Z,96.50
2022-12-31T03:07:08.334Z,96.60
2022-12-31T03:09:36.996Z,96.90
2022-12-31T03:12:25.579Z,96.50
2022-12-31T03:14:53.226Z,96.40
2022-12-31T03:17:20.712Z,96.60
2022-12-31T03:20:06.951Z,96.30
2022-12-31T03:22:38.129Z,96.10
2022-12-31T03:25:30.194Z,96.40
2022-12-31T03:27:58.113Z,96.50
2022-12-31T03:30:26.722Z,96.20
2022-12-31T03:32:56.215Z,96.30
2022-12-31T03:35:25.854Z,96.40
2022-12-31T03:37:53.889Z,96.40
2022-12-31T03:40:23.936Z,96.50
2022-12-31T03:42:51.362Z,96.50
2022-12-31T03:45:19.395Z,96.60
2022-12-31T03:47:47.962Z,96.60
2022-12-31T03:50:18.448Z,96.50
2022-12-31T03:52:46.440Z,96.60
2022-12-31T03:55:13.929Z,96.50
2022-12-31T03:57:41.775Z,96.50
2022-12-31T04:00:12.781Z,96.50
2022-12-31T04:02:40.650Z,96.70
2022-12-31T04:05:08.412Z,96.60
2022-12-31T04:07:36.166Z,96.70
2022-12-31T04:10:08.790Z,97.00
2022-12-31T04:12:36.596Z,96.90
2022-12-31T04:15:05.338Z,96.60
2022-12-31T04:17:32.963Z,96.60
2022-12-31T04:20:00.636Z,97.00
2022-12-31T04:22:28.037Z,96.90
2022-12-31T04:24:55.484Z,96.90
2022-12-31T04:27:22.921Z,97.30
2022-12-31T04:29:50.366Z,97.30
2022-12-31T04:32:19.188Z,97.10
2022-12-31T04:34:46.578Z,96.90
2022-12-31T04:37:14.401Z,97.10
2022-12-31T04:39:41.779Z,97.10
2022-12-31T04:42:09.176Z,97.30
2022-12-31T04:44:36.724Z,97.80
2022-12-31T04:47:04.352Z,97.40
2022-12-31T04:49:31.711Z,97.10
2022-12-31T04:51:59.055Z,97.20
2022-12-31T04:54:26.490Z,97.20
2022-12-31T04:56:53.918Z,97.10
2022-12-31T04:59:21.302Z,97.00
2022-12-31T05:01:48.732Z,97.40
2022-12-31T05:04:16.208Z,97.50
2022-12-31T05:06:43.577Z,97.20
2022-12-31T05:09:11.105Z,97.60
2022-12-31T05:11:39.367Z,97.50
2022-12-31T05:14:06.861Z,97.30
2022-12-31T05:16:34.223Z,97.60
2022-12-31T05:19:01.607Z,97.40
2022-12-31T05:21:28.898Z,97.20
2022-12-31T05:23:56.530Z,97.90
2022-12-31T05:26:28.651Z,97.60
2022-12-31T05:28:56.543Z,97.40
2022-12-31T05:31:23.995Z,97.50
2022-12-31T05:33:51.356Z,97.70
2022-12-31T05:36:18.749Z,97.80
2022-12-31T05:38:46.124Z,97.60
2022-12-31T05:41:13.518Z,97.70
2022-12-31T05:43:40.882Z,97.70
2022-12-31T05:46:08.494Z,97.80
2022-12-31T05:48:35.887Z,97.80
2022-12-31T05:51:05.141Z,97.80
2022-12-31T05:53:34.454Z,98.00
2022-12-31T05:56:02.278Z,97.70
2022-12-31T05:58:29.771Z,98.10
2022-12-31T06:00:57.361Z,98.00
2022-12-31T06:03:24.858Z,98.00
2022-12-31T06:05:52.278Z,98.10
2022-12-31T06:08:19.726Z,98.10
2022-12-31T06:10:47.631Z,98.30
2022-12-31T06:13:14.984Z,98.50
2022-12-31T06:15:42.401Z,98.50
2022-12-31T06:18:09.876Z,98.60
2022-12-31T06:20:37.924Z,98.90
2022-12-31T06:23:05.826Z,98.30
2022-12-31T06:25:35.606Z,98.20
2022-12-31T06:28:04.739Z,98.50
2022-12-31T06:30:32.369Z,98.40
2022-12-31T06:32:59.819Z,98.50
2022-12-31T06:35:27.384Z,98.40
2022-12-31T06:37:54.728Z,98.40
2022-12-31T06:40:22.178Z,98.30
2022-12-31T06:42:53.402Z,98.40
2022-12-31T06:45:25.247Z,98.80
2022-12-31T06:47:52.640Z,98.90
2022-12-31T06:50:20.047Z,99.20
2022-12-31T06:52:47.419Z,99.30
2022-12-31T06:55:15.635Z,99.30
2022-12-31T06:57:43.306Z,98.80
2022-12-31T07:00:11.543Z,98.90
2022-12-31T07:03:01.668Z,98.70
2022-12-31T07:05:40.992Z,98.90
2022-12-31T07:08:11.131Z,98.90
2022-12-31T07:10:50.252Z,98.70
2022-12-31T07:13:45.406Z,98.90
2022-12-31T07:16:54.906Z,99.20
2022-12-31T07:19:25.074Z,99.10
2022-12-31T07:21:55.903Z,98.80
2022-12-31T07:24:23.422Z,99.20
2022-12-31T07:27:09.542Z,99.10
2022-12-31T07:30:08.847Z,99.00
2022-12-31T07:32:38.977Z,99.50
2022-12-31T07:35:12.243Z,99.10
2022-12-31T07:37:46.088Z,99.40
2022-12-31T07:40:16.256Z,99.60
2022-12-31T07:43:00.733Z,99.10
2022-12-31T07:45:49.755Z,99.10
2022-12-31T07:48:28.086Z,99.70
2022-12-31T07:50:57.335Z,99.60
2022-12-31T07:53:26.596Z,99.40
2022-12-31T07:56:03.893Z,99.40
2022-12-31T07:58:40.548Z,99.60
2022-12-31T08:01:19.929Z,99.30
2022-12-31T08:04:09.572Z,99.80
2022-12-31T08:06:45.864Z,99.40
2022-12-31T08:09:25.212Z,99.30
2022-12-31T08:12:02.400Z,99.30
2022-12-31T08:14:31.019Z,99.40
2022-12-31T08:16:58.594Z,99.30
2022-12-31T08:19:30.543Z,99.20
2022-12-31T08:22:10.775Z,99.30
2022-12-31T08:25:00.337Z,99.90
2022-12-31T08:27:42.247Z,99.20
2022-12-31T08:30:20.921Z,99.10
2022-12-31T08:33:10.821Z,99.30
2022-12-31T08:35:52.638Z,99.20
2022-12-31T08:38:37.276Z,99.10
2022-12-31T08:41:23.905Z,99.40
2022-12-31T08:44:04.719Z,99.20
2022-12-31T08:46:40.847Z,99.60
2022-12-31T08:49:09.936Z,99.20
2022-12-31T08:51:37.680Z,99.10
2022-12-31T08:54:05.584Z,99.70
2022-12-31T08:56:38.626Z,99.20
2022-12-31T08:59:23.220Z,99.30
2022-12-31T09:02:07.315Z,99.00
2022-12-31T09:04:59.955Z,99.10
2022-12-31T09:07:39.934Z,99.00
2022-12-31T09:10:38.193Z,99.40
2022-12-31T09:13:26.799Z,99.20
2022-12-31T09:15:57.058Z,99.30
2022-12-31T09:18:31.232Z,99.10
2022-12-31T09:21:00.823Z,99.50
2022-12-31T09:23:28.502Z,99.70
2022-12-31T09:26:28.918Z,99.90
2022-12-31T09:29:17.588Z,99.30
2022-12-31T09:32:10.309Z,99.30
2022-12-31T09:34:40.601Z,99.30
2022-12-31T09:37:20.546Z,99.80
2022-12-31T09:39:53.240Z,99.30
2022-12-31T09:42:39.363Z,99.60
2022-12-31T09:45:46.559Z,99.40
2022-12-31T09:48:32.544Z,99.40
2022-12-31T09:51:25.212Z,99.20
2022-12-31T09:54:09.095Z,99.40
2022-12-31T09:56:59.140Z,99.00
2022-12-31T09:59:46.514Z,99.30
2022-12-31T10:03:07.957Z,99.60
2022-12-31T10:06:10.099Z,99.30
2022-12-31T10:09:15.077Z,99.30
2022-12-31T10:11:51.404Z,99.40
2022-12-31T10:14:46.954Z,99.20
2022-12-31T10:17:36.095Z,99.30
2022-12-31T10:20:45.237Z,99.30
2022-12-31T10:23:52.488Z,99.30
2022-12-31T10:26:53.110Z,99.30
2022-12-31T10:29:25.347Z,99.20
2022-12-31T10:31:52.793Z,99.30
2022-12-31T10:34:25.049Z,99.80
2022-12-31T10:37:02.879Z,99.10
2022-12-31T10:39:36.481Z,99.10
2022-12-31T10:42:16.340Z,99.10
2022-12-31T10:44:58.939Z,99.80
2022-12-31T10:47:45.141Z,99.20
2022-12-31T10:50:38.862Z,99.90
2022-12-31T10:53:08.974Z,99.10
2022-12-31T10:56:10.636Z,99.00
2022-12-31T10:59:03.106Z,99.00
2022-12-31T11:02:05.574Z,99.10
2022-12-31T11:05:08.713Z,99.20
2022-12-31T11:08:00.483Z,99.20
2022-12-31T11:10:53.967Z,99.90
2022-12-31T11:13:49.185Z,99.00
2022-12-31T11:16:22.468Z,99.10
2022-12-31T11:19:07.994Z,99.10
2022-12-31T11:21:48.020Z,99.10
2022-12-31T11:24:56.728Z,99.70
2022-12-31T11:27:36.169Z,99.10
2022-12-31T11:30:23.842Z,99.00
2022-12-31T11:33:22.135Z,99.30
2022-12-31T11:36:08.306Z,99.00
2022-12-31T11:38:51.599Z,99.40
2022-12-31T11:41:38.420Z,99.30
2022-12-31T11:44:21.103Z,99.10
2022-12-31T11:46:54.283Z,99.40
2022-12-31T11:49:40.427Z,99.10
2022-12-31T11:52:21.160Z,99.10
2022-12-31T11:55:11.301Z,99.00
2022-12-31T11:57:42.181Z,99.10
2022-12-31T12:00:12.481Z,99.60
2022-12-31T12:02:45.538Z,99.00
2022-12-31T12:05:17.475Z,99.20
2022-12-31T12:07:45.094Z,99.00
2022-12-31T12:10:36.195Z,99.90
2022-12-31T12:13:25.983Z,98.90
2022-12-31T12:15:58.795Z,98.70
2022-12-31T12:18:45.457Z,98.80
2022-12-31T12:21:20.066Z,99.10
2022-12-31T12:24:19.995Z,98.60
2022-12-31T12:26:47.849Z,98.60
2022-12-31T12:29:19.217Z,98.80
2022-12-31T12:32:16.399Z,99.70
2022-12-31T12:34:49.399Z,98.80
2022-12-31T12:37:35.437Z,99.20
2022-12-31T12:40:29.865Z,98.90
2022-12-31T12:43:02.315Z,99.00
2022-12-31T12:45:41.920Z,98.70
2022-12-31T12:48:21.833Z,98.90
2022-12-31T12:50:49.907Z,98.70
2022-12-31T12:53:29.414Z,99.30
2022-12-31T12:56:19.582Z,98.80
2022-12-31T12:59:02.212Z,98.80
2022-12-31T13:01:36.844Z,99.00
2022-12-31T13:04:37.931Z,98.70
2022-12-31T13:07:36.186Z,98.40
2022-12-31T13:10:29.359Z,98.50
2022-12-31T13:13:32.544Z,98.30
2022-12-31T13:16:18.881Z,98.30
2022-12-31T13:19:14.616Z,98.80
2022-12-31T13:22:07.236Z,98.40
2022-12-31T13:25:16.205Z,98.30
2022-12-31T13:27:50.798Z,98.40
2022-12-31T13:30:18.159Z,98.50
2022-12-31T13:33:00.349Z,99.10
2022-12-31T13:35:54.483Z,98.50
2022-12-31T13:38:28.566Z,98.60
2022-12-31T13:40:58.809Z,98.60
2022-12-31T13:43:35.109Z,98.50
2022-12-31T13:46:25.140Z,98.50
2022-12-31T13:49:05.356Z,98.40
2022-12-31T13:51:45.920Z,98.50
2022-12-31T13:54:32.120Z,98.60
2022-12-31T13:57:05.675Z,98.30
2022-12-31T13:59:41.068Z,98.60
2022-12-31T14:02:26.721Z,98.70
2022-12-31T14:05:02.755Z,98.40
2022-12-31T14:07:45.387Z,98.40
2022-12-31T14:10:20.697Z,98.50
2022-12-31T14:13:05.549Z,98.50
2022-12-31T14:15:38.717Z,98.50
2022-12-31T14:18:26.075Z,98.50
2022-12-31T14:21:06.573Z,98.60
2022-12-31T14:23:57.146Z,98.40
2022-12-31T14:26:33.226Z,98.50
2022-12-31T14:29:14.757Z,98.20
2022-12-31T14:31:48.017Z,98.30
2022-12-31T14:34:53.205Z,98.10
2022-12-31T14:37:33.911Z,98.10
2022-12-31T14:40:38.976Z,98.00
2022-12-31T14:43:26.554Z,97.90
2022-12-31T14:46:12.785Z,98.20
2022-12-31T14:48:51.607Z,98.20
2022-12-31T14:51:19.166Z,97.80
2022-12-31T14:53:55.141Z,97.80
2022-12-31T14:56:39.634Z,98.00
2022-12-31T14:59:35.636Z,97.70
2022-12-31T15:02:48.559Z,97.80
2022-12-31T15:05:21.298Z,97.70
2022-12-31T15:07:48.669Z,97.90
2022-12-31T15:10:22.463Z,98.00
2022-12-31T15:13:06.730Z,97.90
2022-12-31T15:15:43.163Z,97.80
2022-12-31T15:18:27.735Z,98.30
2022-12-31T15:21:13.861Z,98.00
2022-12-31T15:23:43.762Z,98.20
2022-12-31T15:26:25.303Z,97.90
2022-12-31T15:29:05.333Z,97.90
2022-12-31T15:31:35.364Z,97.70
2022-12-31T15:34:23.197Z,97.90
2022-12-31T15:36:57.286Z,97.80
2022-12-31T15:39:40.167Z,97.90
2022-12-31T15:42:43.418Z,97.80
2022-12-31T15:45:22.501Z,97.50
2022-12-31T15:47:57.394Z,97.70
2022-12-31T15:50:25.917Z,97.70
2022-12-31T15:52:56.476Z,97.60
2022-12-31T15:55:32.717Z,97.50
2022-12-31T15:58:05.285Z,97.50
2022-12-31T16:01:10.313Z,97.50
2022-12-31T16:03:42.281Z,97.40
2022-12-31T16:06:15.564Z,97.30
2022-12-31T16:08:49.134Z,97.30
2022-12-31T16:11:17.298Z,97.10
2022-12-31T16:13:49.768Z,96.90
2022-12-31T16:16:23.243Z,97.10
2022-12-31T16:18:52.978Z,97.00
2022-12-31T16:21:30.367Z,96.80
2022-12-31T16:24:00.183Z,96.90
2022-12-31T16:26:44.556Z,96.80
2022-12-31T16:29:14.974Z,96.60
2022-12-31T16:31:44.578Z,96.70
2022-12-31T16:34:24.045Z,96.60
2022-12-31T16:36:55.540Z,96.50
2022-12-31T16:39:26.269Z,96.80
2022-12-31T16:42:06.968Z,96.40
2022-12-31T16:44:34.715Z,96.60
2022-12-31T16:47:03.348Z,96.50
2022-12-31T16:49:33.034Z,96.40
2022-12-31T16:52:04.587Z,96.00
2022-12-31T16:54:39.653Z,96.20
2022-12-31T16:57:10.923Z,96.30
2022-12-31T16:59:45.063Z,96.20
2022-12-31T17:02:22.951Z,96.20
2022-12-31T17:04:55.940Z,96.20
2022-12-31T17:07:38.427Z,96.00
2022-12-31T17:10:09.009Z,96.00
2022-12-31T17:13:25.052Z,96.20
2022-12-31T17:15:42.341Z,96.50
2022-12-31T17:18:25.535Z,96.10
2022-12-31T17:20:54.663Z,95.80
2022-12-31T17:23:28.706Z,95.80
2022-12-31T17:26:01.394Z,95.60
2022-12-31T17:28:47.262Z,95.30
2022-12-31T17:31:34.746Z,95.50
2022-12-31T17:34:14.357Z,95.70
2022-12-31T17:36:57.627Z,95.70
2022-12-31T17:39:26.676Z,95.40
2022-12-31T17:41:57.511Z,95.50
2022-12-31T17:44:28.886Z,95.50
2022-12-31T17:46:56.394Z,95.50
2022-12-31T17:49:29.570Z,95.60
2022-12-31T17:51:57.727Z,95.50
2022-12-31T17:54:25.246Z,95.40
2022-12-31T17:56:53.492Z,95.20
2022-12-31T17:59:33.393Z,95.10
2022-12-31T18:02:05.334Z,95.10
2022-12-31T18:04:33.111Z,95.10
2022-12-31T18:07:00.475Z,95.10
2022-12-31T18:09:27.861Z,94.90
2022-12-31T18:11:59.722Z,95.00
2022-12-31T18:14:28.946Z,94.90
2022-12-31T18:16:56.327Z,94.90
2022-12-31T18:19:54.137Z,94.80
2022-12-31T18:22:17.574Z,94.90
2022-12-31T18:24:44.976Z,94.90
2022-12-31T18:27:17.861Z,94.70
2022-12-31T18:29:45.667Z,94.70
2022-12-31T18:32:24.040Z,94.70
2022-12-31T18:34:51.840Z,94.30
2022-12-31T18:37:22.277Z,94.30
2022-12-31T18:39:49.995Z,93.90
2022-12-31T18:42:19.027Z,93.90
2022-12-31T18:44:46.893Z,93.50
2022-12-31T18:47:15.975Z,93.90
2022-12-31T18:49:44.934Z,93.60
2022-12-31T18:52:17.912Z,93.50
2022-12-31T18:54:45.297Z,93.10
2022-12-31T18:57:14.910Z,92.90
2022-12-31T18:59:42.380Z,92.80
2022-12-31T19:02:18.230Z,93.00
2022-12-31T19:04:46.431Z,93.00
2022-12-31T19:07:14.037Z,92.70
2022-12-31T19:09:46.106Z,92.60
2022-12-31T19:12:14.733Z,92.70
2022-12-31T19:14:42.424Z,92.30
2022-12-31T19:19:36.080Z,92.30
2022-12-31T19:22:03.546Z,92.20
2022-12-31T19:24:30.932Z,91.70
2022-12-31T19:26:58.296Z,92.10
2022-12-31T19:29:27.556Z,91.80
2022-12-31T19:31:55.358Z,91.70
2022-12-31T19:34:22.819Z,91.80
2022-12-31T19:36:50.553Z,91.50
2022-12-31T19:39:19.899Z,91.40
2022-12-31T19:41:58.177Z,91.20
2022-12-31T19:44:26.900Z,91.20
2022-12-31T19:46:54.325Z,90.90
2022-12-31T19:49:21.891Z,90.60
2022-12-31T19:51:49.385Z,90.80
2022-12-31T19:54:16.783Z,90.30
2022-12-31T19:56:44.137Z,90.50
2022-12-31T19:59:11.837Z,90.20
2022-12-31T20:01:39.384Z,90.20
2022-12-31T20:04:07.010Z,90.20
2022-12-31T20:06:34.547Z,90.20
2022-12-31T20:09:02.853Z,90.50
2022-12-31T20:11:30.319Z,90.20
2022-12-31T20:13:57.895Z,90.00
2022-12-31T20:16:29.816Z,89.70
2022-12-31T20:18:57.638Z,90.10
2022-12-31T20:21:28.102Z,90.00
2022-12-31T20:23:55.778Z,88.40
2022-12-31T20:26:24.455Z,87.30
2022-12-31T20:28:52.617Z,87.60
2022-12-31T20:31:22.807Z,88.10
2022-12-31T20:33:50.419Z,87.70
2022-12-31T20:36:18.221Z,87.70
2022-12-31T20:38:45.775Z,87.80
2022-12-31T20:41:16.008Z,87.50
2022-12-31T20:43:44.280Z,87.20
2022-12-31T20:46:20.843Z,87.10
2022-12-31T20:48:50.471Z,86.90
2022-12-31T20:51:18.639Z,86.80
2022-12-31T20:53:48.208Z,85.50
2022-12-31T20:56:16.220Z,86.00
2022-12-31T20:58:44.023Z,85.30
2022-12-31T21:01:14.989Z,84.60
2022-12-31T21:06:32.766Z,84.70
2022-12-31T21:09:01.918Z,83.50
2022-12-31T21:11:48.367Z,83.60
2022-12-31T21:14:15.831Z,83.30
2022-12-31T21:16:43.368Z,84.40
2022-12-31T21:19:10.744Z,83.30
2022-12-31T21:21:38.171Z,83.60
2022-12-31T21:24:05.906Z,83.00
2022-12-31T21:26:34.339Z,82.60
2022-12-31T21:29:01.768Z,81.80
2022-12-31T21:31:29.169Z,80.90
2022-12-31T21:33:56.462Z,80.60
2022-12-31T21:36:23.828Z,81.20
2022-12-31T21:38:51.313Z,80.60
2022-12-31T21:41:37.489Z,80.90
2022-12-31T21:44:04.880Z,80.50
2022-12-31T21:46:32.271Z,80.80
2022-12-31T21:49:01.441Z,80.70
2022-12-31T21:51:29.438Z,80.60
2022-12-31T21:53:57.352Z,80.40
2022-12-31T21:56:24.887Z,81.40
2022-12-31T21:59:14.245Z,80.80
2022-12-31T22:02:00.845Z,80.80
2022-12-31T22:05:01.025Z,81.20
2022-12-31T22:07:16.310Z,80.90
2022-12-31T22:09:43.670Z,80.50
2022-12-31T22:12:10.996Z,80.30
2022-12-31T22:14:38.344Z,80.40
2022-12-31T22:17:05.661Z,80.70
2022-12-31T22:19:39.304Z,80.80
2022-12-31T22:22:20.368Z,80.20
2022-12-31T22:24:47.709Z,80.40
2022-12-31T22:27:28.244Z,80.20
2022-12-31T22:29:57.075Z,80.30
2022-12-31T22:32:24.465Z,80.30
2022-12-31T22:34:51.840Z,80.20
2022-12-31T22:37:46.506Z,79.60
2022-12-31T22:40:06.915Z,79.50
2022-12-31T22:42:34.383Z,79.30
2022-12-31T22:45:01.911Z,79.30
2022-12-31T22:47:29.372Z,78.90
2022-12-31T22:49:56.713Z,78.30
2022-12-31T22:52:24.131Z,77.70
2022-12-31T22:54:51.499Z,78.40
2022-12-31T22:57:20.354Z,77.60
2022-12-31T22:59:47.980Z,77.80
2022-12-31T23:02:16.456Z,77.80
2022-12-31T23:04:44.526Z,77.90
2022-12-31T23:07:12.039Z,78.70
2022-12-31T23:10:17.825Z,78.70
2022-12-31T23:12:45.164Z,78.70
2022-12-31T23:15:31.277Z,78.60
2022-12-31T23:18:17.558Z,78.30
2022-12-31T23:21:03.573Z,78.20
2022-12-31T23:23:31.541Z,78.30
2022-12-31T23:26:02.414Z,77.90
2022-12-31T23:28:30.409Z,78.40
2022-12-31T23:30:57.779Z,76.90
2022-12-31T23:33:26.556Z,76.30
2022-12-31T23:36:07.104Z,76.00
2022-12-31T23:38:34.654Z,76.30
2022-12-31T23:41:12.161Z,75.00
2022-12-31T23:43:39.513Z,75.70
2022-12-31T23:46:07.069Z,76.20
2022-12-31T23:48:34.403Z,75.40
2022-12-31T23:51:01.828Z,74.80
2022-12-31T23:53:29.295Z,74.90
2022-12-31T23:56:11.341Z,75.10
2022-12-31T23:58:40.382Z,75.10
